createdAt,value
2017-06-25T00:00:31.667Z,63.12
2017-06-25T00:01:31.710Z,63.22
2017-06-25T00:02:32.062Z,63.31
2017-06-25T00:03:31.794Z,63.6
2017-06-25T00:04:31.836Z,63.41
2017-06-25T00:05:31.881Z,63.31
2017-06-25T00:06:31.919Z,63.51
2017-06-25T00:07:31.953Z,63.41
2017-06-25T00:08:32.324Z,63.7
2017-06-25T00:09:32.038Z,63.51
2017-06-25T00:10:32.073Z,63.31
2017-06-25T00:11:32.136Z,63.22
2017-06-25T00:12:32.161Z,63.22
2017-06-25T00:13:32.195Z,63.12
2017-06-25T00:14:32.237Z,63.12
2017-06-25T00:15:32.278Z,63.41
2017-06-25T00:16:32.324Z,63.7
2017-06-25T00:17:32.369Z,63.12
2017-06-25T00:18:32.405Z,63.12
2017-06-25T00:19:32.445Z,63.31
2017-06-25T00:20:32.479Z,63.12
2017-06-25T00:21:32.525Z,63.12
2017-06-25T00:22:32.565Z,63.22
2017-06-25T00:23:32.601Z,63.41
2017-06-25T00:24:32.649Z,63.31
2017-06-25T00:25:32.688Z,63.6
2017-06-25T00:26:32.723Z,63.99
2017-06-25T00:27:32.769Z,63.7
2017-06-25T00:28:32.803Z,63.7
2017-06-25T00:29:32.846Z,63.51
2017-06-25T00:30:32.887Z,63.79
2017-06-25T00:31:32.932Z,63.7
2017-06-25T00:32:32.965Z,63.51
2017-06-25T00:33:33.013Z,63.79
2017-06-25T00:34:33.048Z,63.7
2017-06-25T00:35:33.095Z,63.6
2017-06-25T00:36:33.132Z,63.79
2017-06-25T00:37:33.172Z,63.7
2017-06-25T00:38:33.216Z,63.79
2017-06-25T00:39:33.257Z,63.79
2017-06-25T00:40:33.291Z,64.05
2017-06-25T00:41:33.337Z,63.7
2017-06-25T00:42:33.379Z,63.31
2017-06-25T00:43:33.727Z,63.99
2017-06-25T00:44:33.452Z,63.89
2017-06-25T00:45:33.496Z,63.51
2017-06-25T00:46:33.540Z,63.7
2017-06-25T00:47:33.577Z,63.7
2017-06-25T00:48:33.623Z,63.41
2017-06-25T00:49:33.655Z,63.6
2017-06-25T00:50:33.703Z,63.7
2017-06-25T00:51:33.742Z,64.37
2017-06-25T00:52:34.089Z,63.28
2017-06-25T00:53:33.852Z,63.7
2017-06-25T00:54:33.858Z,64.15
2017-06-25T00:55:34.213Z,63.99
2017-06-25T00:56:33.941Z,63.57
2017-06-25T00:57:33.987Z,63.67
2017-06-25T00:58:34.334Z,63.95
2017-06-25T00:59:34.069Z,64.15
2017-06-25T01:00:34.326Z,64.15
2017-06-25T01:01:34.142Z,64.63
2017-06-25T01:02:34.186Z,64.53
2017-06-25T01:03:34.236Z,64.15
2017-06-25T01:04:34.270Z,64.34
2017-06-25T01:05:34.304Z,64.15
2017-06-25T01:06:34.349Z,63.86
2017-06-25T01:07:34.691Z,63.95
2017-06-25T01:08:34.741Z,64.05
2017-06-25T01:09:34.467Z,64.05
2017-06-25T01:10:34.512Z,64.63
2017-06-25T01:11:34.553Z,64.73
2017-06-25T01:12:34.585Z,64.63
2017-06-25T01:13:34.628Z,64.53
2017-06-25T01:14:34.666Z,64.53
2017-06-25T01:15:35.022Z,64.73
2017-06-25T01:16:34.754Z,64.34
2017-06-25T01:17:34.788Z,64.73
2017-06-25T01:18:34.834Z,64.82
2017-06-25T01:19:35.184Z,64.53
2017-06-25T01:20:34.909Z,65.3
2017-06-25T01:21:34.954Z,64.69
2017-06-25T01:22:34.990Z,65.01
2017-06-25T01:23:35.345Z,65.08
2017-06-25T01:24:35.071Z,65.08
2017-06-25T01:25:35.115Z,64.98
2017-06-25T01:26:35.159Z,64.98
2017-06-25T01:27:35.191Z,64.79
2017-06-25T01:28:35.232Z,65.17
2017-06-25T01:29:35.278Z,65.75
2017-06-25T01:30:35.318Z,65.66
2017-06-25T01:31:35.360Z,65.66
2017-06-25T01:32:35.399Z,65.56
2017-06-25T01:33:35.432Z,65.46
2017-06-25T01:34:35.475Z,65.84
2017-06-25T01:35:35.520Z,65.46
2017-06-25T01:36:35.864Z,65.66
2017-06-25T01:37:35.600Z,65.66
2017-06-25T01:38:35.641Z,65.56
2017-06-25T01:39:35.980Z,65.66
2017-06-25T01:40:35.716Z,65.75
2017-06-25T01:41:35.763Z,66.23
2017-06-25T01:42:35.797Z,65.94
2017-06-25T01:43:35.840Z,65.84
2017-06-25T01:44:35.876Z,65.84
2017-06-25T01:45:35.917Z,66.04
2017-06-25T01:46:35.962Z,65.94
2017-06-25T01:47:36.005Z,65.84
2017-06-25T01:48:36.044Z,65.75
2017-06-25T01:49:36.083Z,66.61
2017-06-25T01:50:36.119Z,65.94
2017-06-25T01:51:36.164Z,66.42
2017-06-25T01:52:36.198Z,65.97
2017-06-25T01:53:36.244Z,65.84
2017-06-25T01:54:36.288Z,66.27
2017-06-25T01:55:36.320Z,65.66
2017-06-25T01:56:36.362Z,66.52
2017-06-25T01:57:36.405Z,66.33
2017-06-25T01:58:36.441Z,65.84
2017-06-25T01:59:36.489Z,66.33
2017-06-25T02:00:36.528Z,66.14
2017-06-25T02:01:36.561Z,66.52
2017-06-25T02:02:36.911Z,66.52
2017-06-25T02:03:36.641Z,66.52
2017-06-25T02:04:36.688Z,66.71
2017-06-25T02:05:36.729Z,66.52
2017-06-25T02:06:36.774Z,66.52
2017-06-25T02:07:36.802Z,66.52
2017-06-25T02:08:36.847Z,66.42
2017-06-25T02:09:36.884Z,66.33
2017-06-25T02:10:36.936Z,66.71
2017-06-25T02:11:36.971Z,67
2017-06-25T02:12:37.005Z,66.91
2017-06-25T02:13:37.361Z,66.81
2017-06-25T02:14:37.086Z,66.81
2017-06-25T02:15:37.440Z,66.91
2017-06-25T02:16:37.172Z,66.81
2017-06-25T02:17:37.209Z,66.61
2017-06-25T02:18:37.246Z,66.91
2017-06-25T02:19:37.291Z,66.91
2017-06-25T02:20:37.640Z,66.61
2017-06-25T02:21:37.371Z,66.91
2017-06-25T02:22:37.409Z,67
2017-06-25T02:23:37.452Z,66.71
2017-06-25T02:24:37.487Z,66.87
2017-06-25T02:25:37.527Z,66.49
2017-06-25T02:26:37.565Z,66.97
2017-06-25T02:27:37.612Z,66.87
2017-06-25T02:28:37.645Z,66.3
2017-06-25T02:29:37.688Z,67.45
2017-06-25T02:30:38.035Z,67.64
2017-06-25T02:31:37.772Z,66.77
2017-06-25T02:32:37.810Z,67.25
2017-06-25T02:33:38.153Z,66.97
2017-06-25T02:34:37.888Z,67.07
2017-06-25T02:35:37.933Z,66.77
2017-06-25T02:36:38.274Z,67.07
2017-06-25T02:37:38.013Z,67.25
2017-06-25T02:38:38.048Z,66.97
2017-06-25T02:39:38.094Z,67.07
2017-06-25T02:40:38.447Z,66.97
2017-06-25T02:41:38.168Z,67.54
2017-06-25T02:42:38.208Z,67.54
2017-06-25T02:43:38.563Z,67.45
2017-06-25T02:44:38.603Z,67.35
2017-06-25T02:45:38.335Z,67.35
2017-06-25T02:46:38.367Z,67.61
2017-06-25T02:47:38.411Z,67.7
2017-06-25T02:48:38.452Z,67.74
2017-06-25T02:49:38.488Z,67.8
2017-06-25T02:50:38.532Z,68.18
2017-06-25T02:51:38.573Z,67.99
2017-06-25T02:52:38.607Z,67.9
2017-06-25T02:53:38.645Z,67.9
2017-06-25T02:54:39.001Z,67.8
2017-06-25T02:55:38.725Z,67.99
2017-06-25T02:56:38.775Z,67.61
2017-06-25T02:57:38.806Z,67.61
2017-06-25T02:58:38.854Z,67.8
2017-06-25T02:59:38.886Z,67.7
2017-06-25T03:00:38.933Z,68.18
2017-06-25T03:01:38.973Z,68.37
2017-06-25T03:02:39.007Z,68.37
2017-06-25T03:03:39.361Z,68.08
2017-06-25T03:04:39.092Z,68.47
2017-06-25T03:05:39.132Z,68.66
2017-06-25T03:06:39.172Z,68.57
2017-06-25T03:07:39.213Z,68.47
2017-06-25T03:08:39.244Z,69.05
2017-06-25T03:09:39.291Z,68.47
2017-06-25T03:10:39.326Z,68.57
2017-06-25T03:11:39.372Z,68.47
2017-06-25T03:12:39.403Z,68.76
2017-06-25T03:13:39.450Z,68.18
2017-06-25T03:14:39.491Z,68.47
2017-06-25T03:15:39.523Z,68.18
2017-06-25T03:16:39.564Z,68.18
2017-06-25T03:17:39.611Z,68.28
2017-06-25T03:18:39.647Z,68.08
2017-06-25T03:19:39.702Z,68.66
2017-06-25T03:20:39.731Z,68.66
2017-06-25T03:21:39.763Z,68.37
2017-06-25T03:22:39.809Z,68.37
2017-06-25T03:23:39.843Z,69.14
2017-06-25T03:24:39.888Z,68.57
2017-06-25T03:25:40.228Z,68.47
2017-06-25T03:26:39.972Z,68.28
2017-06-25T03:27:40.002Z,68.21
2017-06-25T03:28:40.049Z,68.6
2017-06-25T03:29:40.087Z,68.7
2017-06-25T03:30:40.128Z,68.21
2017-06-25T03:31:40.168Z,68.21
2017-06-25T03:32:40.203Z,68.21
2017-06-25T03:33:40.276Z,68.79
2017-06-25T03:34:40.291Z,68.73
2017-06-25T03:35:40.337Z,67.96
2017-06-25T03:36:40.368Z,67.77
2017-06-25T03:37:40.711Z,67.77
2017-06-25T03:38:40.452Z,67.38
2017-06-25T03:39:40.488Z,67.58
2017-06-25T03:40:40.531Z,67.68
2017-06-25T03:41:40.567Z,67
2017-06-25T03:42:40.609Z,67.1
2017-06-25T03:43:40.651Z,66.91
2017-06-25T03:44:40.686Z,66.91
2017-06-25T03:45:40.734Z,67
2017-06-25T03:46:40.769Z,67.96
2017-06-25T03:47:40.815Z,67.86
2017-06-25T03:48:41.158Z,67.86
2017-06-25T03:49:40.892Z,66.94
2017-06-25T03:50:40.938Z,66.55
2017-06-25T03:51:40.978Z,67.22
2017-06-25T03:52:41.334Z,66.94
2017-06-25T03:53:41.059Z,66.94
2017-06-25T03:54:41.098Z,66.42
2017-06-25T03:55:41.139Z,66.74
2017-06-25T03:56:41.179Z,66.55
2017-06-25T03:57:41.214Z,66.33
2017-06-25T03:58:41.261Z,66.71
2017-06-25T03:59:41.608Z,66.14
2017-06-25T04:00:41.343Z,66.04
2017-06-25T04:01:41.377Z,66.04
2017-06-25T04:02:41.422Z,66.23
2017-06-25T04:03:41.771Z,66.04
2017-06-25T04:04:41.504Z,66.33
2017-06-25T04:05:41.543Z,66.23
2017-06-25T04:06:41.583Z,66.04
2017-06-25T04:07:41.622Z,65.94
2017-06-25T04:08:41.657Z,66.14
2017-06-25T04:09:41.706Z,66.52
2017-06-25T04:10:41.739Z,66.42
2017-06-25T04:11:41.785Z,66.04
2017-06-25T04:12:41.825Z,66.33
2017-06-25T04:13:41.866Z,65.66
2017-06-25T04:14:41.906Z,66.14
2017-06-25T04:15:41.945Z,66.61
2017-06-25T04:16:41.986Z,67.19
2017-06-25T04:17:42.028Z,68.54
2017-06-25T04:18:42.066Z,68.86
2017-06-25T04:19:42.114Z,67.49
2017-06-25T04:20:42.148Z,66.46
2017-06-25T04:21:42.490Z,65.63
2017-06-25T04:22:42.230Z,64.59
2017-06-25T04:23:42.572Z,63.57
2017-06-25T04:24:42.313Z,62.82
2017-06-25T04:25:42.350Z,61.7
2017-06-25T04:26:42.396Z,60.76
2017-06-25T04:27:42.740Z,60.86
2017-06-25T04:28:42.788Z,61.37
2017-06-25T04:29:42.515Z,60.92
2017-06-25T04:30:42.565Z,59.33
2017-06-25T04:31:42.604Z,57.33
2017-06-25T04:32:42.648Z,56.77
2017-06-25T04:33:43.000Z,56.03
2017-06-25T04:34:42.733Z,55.44
2017-06-25T04:35:43.085Z,54.92
2017-06-25T04:36:43.130Z,52.91
2017-06-25T04:37:42.860Z,52.15
2017-06-25T04:38:42.927Z,51.23
2017-06-25T04:39:42.956Z,49.8
2017-06-25T04:40:43.007Z,49.15
2017-06-25T04:41:43.346Z,48.19
2017-06-25T04:42:43.387Z,46.17
2017-06-25T04:43:43.133Z,44.71
2017-06-25T04:44:43.171Z,43.84
2017-06-25T04:45:43.232Z,44.2
2017-06-25T04:46:43.260Z,44.38
2017-06-25T04:47:43.305Z,44.69
2017-06-25T04:48:43.358Z,43.93
2017-06-25T04:49:43.709Z,43.95
2017-06-25T04:50:43.447Z,42.71
2017-06-25T04:51:43.491Z,42.26
2017-06-25T04:52:43.530Z,41.11
2017-06-25T04:53:43.889Z,39.36
2017-06-25T04:54:43.626Z,38.59
2017-06-25T04:55:43.981Z,37.41
2017-06-25T04:56:43.719Z,37.4
2017-06-25T04:57:43.765Z,37.55
2017-06-25T04:58:43.809Z,38.2
2017-06-25T04:59:43.849Z,38.75
2017-06-25T05:00:43.899Z,39
2017-06-25T05:01:43.950Z,39.45
2017-06-25T05:02:43.983Z,39.82
2017-06-25T05:03:44.034Z,40.08
2017-06-25T05:04:44.071Z,40.54
2017-06-25T05:05:44.121Z,42.09
2017-06-25T05:06:44.477Z,42.79
2017-06-25T05:07:44.211Z,42.23
2017-06-25T05:08:44.256Z,41.59
2017-06-25T05:09:44.603Z,41.14
2017-06-25T05:10:44.345Z,39.92
2017-06-25T05:11:44.384Z,38.77
2017-06-25T05:12:44.442Z,37.81
2017-06-25T05:13:44.477Z,37.41
2017-06-25T05:14:44.522Z,37.39
2017-06-25T05:15:44.565Z,37.85
2017-06-25T05:16:44.613Z,38.32
2017-06-25T05:17:44.651Z,38.79
2017-06-25T05:18:44.699Z,38.85
2017-06-25T05:19:44.739Z,39.24
2017-06-25T05:20:45.086Z,39.8
2017-06-25T05:21:44.826Z,39.98
2017-06-25T05:22:44.873Z,40.08
2017-06-25T05:23:44.919Z,41.12
2017-06-25T05:24:45.269Z,40.73
2017-06-25T05:25:45.009Z,40.91
2017-06-25T05:26:45.042Z,41.08
2017-06-25T05:27:45.093Z,41.27
2017-06-25T05:28:45.445Z,42.05
2017-06-25T05:29:45.179Z,41.93
2017-06-25T05:30:45.537Z,42.32
2017-06-25T05:31:45.574Z,42.51
2017-06-25T05:32:45.303Z,42.71
2017-06-25T05:33:45.352Z,42.54
2017-06-25T05:34:45.398Z,42.71
2017-06-25T05:35:45.750Z,42.61
2017-06-25T05:36:45.789Z,42.71
2017-06-25T05:37:45.521Z,42.51
2017-06-25T05:38:45.566Z,42.97
2017-06-25T05:39:45.625Z,42.88
2017-06-25T05:40:45.655Z,43.17
2017-06-25T05:41:45.699Z,43.37
2017-06-25T05:42:45.741Z,43.46
2017-06-25T05:43:45.780Z,43.27
2017-06-25T05:44:45.827Z,44.53
2017-06-25T05:45:45.876Z,44.54
2017-06-25T05:46:45.912Z,45.61
2017-06-25T05:47:45.960Z,45.27
2017-06-25T05:48:46.018Z,44.23
2017-06-25T05:49:46.054Z,43.59
2017-06-25T05:50:46.090Z,43.15
2017-06-25T05:51:46.144Z,42.11
2017-06-25T05:52:46.494Z,41.3
2017-06-25T05:53:46.227Z,39.98
2017-06-25T05:54:46.278Z,39.62
2017-06-25T05:55:46.324Z,38.3
2017-06-25T05:56:46.366Z,36.69
2017-06-25T05:57:46.417Z,35.55
2017-06-25T05:58:46.468Z,34.69
2017-06-25T05:59:46.508Z,33.94
2017-06-25T06:00:46.565Z,32.57
2017-06-25T06:01:46.609Z,31.23
2017-06-25T06:02:46.662Z,30.85
2017-06-25T06:03:46.711Z,29.87
2017-06-25T06:04:46.758Z,28.82
2017-06-25T06:05:46.814Z,28.54
2017-06-25T06:06:46.863Z,26.78
2017-06-25T06:07:46.913Z,26.99
2017-06-25T06:08:47.266Z,25.61
2017-06-25T06:09:47.018Z,25.12
2017-06-25T06:10:47.065Z,24.82
2017-06-25T06:11:47.121Z,24.82
2017-06-25T06:12:47.168Z,23.94
2017-06-25T06:13:47.224Z,23.63
2017-06-25T06:14:47.278Z,24.02
2017-06-25T06:15:47.630Z,23.93
2017-06-25T06:16:47.382Z,23.14
2017-06-25T06:17:47.430Z,23.24
2017-06-25T06:18:47.799Z,23.04
2017-06-25T06:19:47.536Z,22.94
2017-06-25T06:20:47.900Z,22.26
2017-06-25T06:21:47.948Z,22.26
2017-06-25T06:22:47.698Z,21.87
2017-06-25T06:23:48.059Z,21.98
2017-06-25T06:24:47.804Z,21.98
2017-06-25T06:25:47.858Z,21.98
2017-06-25T06:26:47.912Z,21.59
2017-06-25T06:27:47.963Z,21.5
2017-06-25T06:28:48.010Z,20.91
2017-06-25T06:29:48.071Z,20.91
2017-06-25T06:30:48.127Z,20.83
2017-06-25T06:31:48.181Z,20.23
2017-06-25T06:32:48.235Z,20.73
2017-06-25T06:33:48.294Z,20.45
2017-06-25T06:34:48.341Z,20.35
2017-06-25T06:35:48.388Z,19.67
2017-06-25T06:36:48.450Z,19.77
2017-06-25T06:37:48.503Z,19.48
2017-06-25T06:38:48.561Z,19.09
2017-06-25T06:39:48.609Z,18.9
2017-06-25T06:40:48.978Z,18.51
2017-06-25T06:41:49.025Z,18.8
2017-06-25T06:42:49.082Z,18.71
2017-06-25T06:43:48.883Z,18.8
2017-06-25T06:44:48.892Z,18.32
2017-06-25T06:45:48.946Z,18.13
2017-06-25T06:46:49.302Z,17.73
2017-06-25T06:47:49.056Z,18.04
2017-06-25T06:48:49.107Z,17.44
2017-06-25T06:49:49.168Z,17.46
2017-06-25T06:50:49.524Z,17.07
2017-06-25T06:51:49.281Z,16.78
2017-06-25T06:52:49.330Z,16
2017-06-25T06:53:49.387Z,16.3
2017-06-25T06:54:49.447Z,15.8
2017-06-25T06:55:49.814Z,15.81
2017-06-25T06:56:49.866Z,15.52
2017-06-25T06:57:49.618Z,15.13
2017-06-25T06:58:49.673Z,14.54
2017-06-25T06:59:49.792Z,14.44
2017-06-25T07:00:49.793Z,14.54
2017-06-25T07:01:49.840Z,14.53
2017-06-25T07:02:49.899Z,14.43
2017-06-25T07:03:49.967Z,14.43
2017-06-25T07:04:50.013Z,14.43
2017-06-25T07:05:50.072Z,14.62
2017-06-25T07:06:50.135Z,14.52
2017-06-25T07:07:50.192Z,14.82
2017-06-25T07:08:50.553Z,14.91
2017-06-25T07:09:50.607Z,14.52
2017-06-25T07:10:50.364Z,14.72
2017-06-25T07:11:50.419Z,14.73
2017-06-25T07:12:50.470Z,14.53
2017-06-25T07:13:50.537Z,14.04
2017-06-25T07:14:50.592Z,13.35
2017-06-25T07:15:50.652Z,13.85
2017-06-25T07:16:50.709Z,13.85
2017-06-25T07:17:51.069Z,13.46
2017-06-25T07:18:50.817Z,13.66
2017-06-25T07:19:50.883Z,13.55
2017-06-25T07:20:50.941Z,13.56
2017-06-25T07:21:51.005Z,13.36
2017-06-25T07:22:51.359Z,13.56
2017-06-25T07:23:51.114Z,13.46
2017-06-25T07:24:51.172Z,13.16
2017-06-25T07:25:51.224Z,13.45
2017-06-25T07:26:51.289Z,13.34
2017-06-25T07:27:51.340Z,13.04
2017-06-25T07:28:51.405Z,13.54
2017-06-25T07:29:51.460Z,13.23
2017-06-25T07:30:51.515Z,14.01
2017-06-25T07:31:51.581Z,14.4
2017-06-25T07:32:51.631Z,14.31
2017-06-25T07:33:51.689Z,14.8
2017-06-25T07:34:52.060Z,14.4
2017-06-25T07:35:51.807Z,14.6
2017-06-25T07:36:51.868Z,14.7
2017-06-25T07:37:51.924Z,14.6
2017-06-25T07:38:51.976Z,14.99
2017-06-25T07:39:52.038Z,15.09
2017-06-25T07:40:52.099Z,15.77
2017-06-25T07:41:52.463Z,15.48
2017-06-25T07:42:52.206Z,15.88
2017-06-25T07:43:52.570Z,15.59
2017-06-25T07:44:52.326Z,15.4
2017-06-25T07:45:52.387Z,14.91
2017-06-25T07:46:52.439Z,15.01
2017-06-25T07:47:52.500Z,14.8
2017-06-25T07:48:52.856Z,14.5
2017-06-25T07:49:52.615Z,14.69
2017-06-25T07:50:52.664Z,14.88
2017-06-25T07:51:53.036Z,15.95
2017-06-25T07:52:52.777Z,15.94
2017-06-25T07:53:52.838Z,16.43
2017-06-25T07:54:52.890Z,16.91
2017-06-25T07:55:52.944Z,17.49
2017-06-25T07:56:53.008Z,17.6
2017-06-25T07:57:53.062Z,17.41
2017-06-25T07:58:53.119Z,17.32
2017-06-25T07:59:53.183Z,16.94
2017-06-25T08:00:53.228Z,16.95
2017-06-25T08:01:53.291Z,16.27
2017-06-25T08:02:53.347Z,16.07
2017-06-25T08:03:53.704Z,16.28
2017-06-25T08:04:53.774Z,15.8
2017-06-25T08:05:53.828Z,15.11
2017-06-25T08:06:53.578Z,14.81
2017-06-25T08:07:53.634Z,14.51
2017-06-25T08:08:53.688Z,14.71
2017-06-25T08:09:53.753Z,14.91
2017-06-25T08:10:53.812Z,14.51
2017-06-25T08:11:53.870Z,14.8
2017-06-25T08:12:53.921Z,14.61
2017-06-25T08:13:53.989Z,14.8
2017-06-25T08:14:54.055Z,14.6
2017-06-25T08:15:54.095Z,14.9
2017-06-25T08:16:54.152Z,14.89
2017-06-25T08:17:54.217Z,15.37
2017-06-25T08:18:54.278Z,15.27
2017-06-25T08:19:54.327Z,15.57
2017-06-25T08:20:54.392Z,15.77
2017-06-25T08:21:54.749Z,15.47
2017-06-25T08:22:54.507Z,15.67
2017-06-25T08:23:54.563Z,15.37
2017-06-25T08:24:54.618Z,15.47
2017-06-25T08:25:54.985Z,15.37
2017-06-25T08:26:54.734Z,14.99
2017-06-25T08:27:54.798Z,14.98
2017-06-25T08:28:54.853Z,14.98
2017-06-25T08:29:54.916Z,14.98
2017-06-25T08:30:54.976Z,15.18
2017-06-25T08:31:55.341Z,15.37
2017-06-25T08:32:55.096Z,15.47
2017-06-25T08:33:55.151Z,15.46
2017-06-25T08:34:55.519Z,15.56
2017-06-25T08:35:55.260Z,15.46
2017-06-25T08:36:55.328Z,15.56
2017-06-25T08:37:55.382Z,15.76
2017-06-25T08:38:55.443Z,15.95
2017-06-25T08:39:55.503Z,15.77
2017-06-25T08:40:55.554Z,15.37
2017-06-25T08:41:55.613Z,15.67
2017-06-25T08:42:55.678Z,15.68
2017-06-25T08:43:55.732Z,15
2017-06-25T08:44:56.103Z,14.9
2017-06-25T08:45:55.853Z,14.7
2017-06-25T08:46:55.908Z,14.5
2017-06-25T08:47:55.977Z,14.89
2017-06-25T08:48:56.026Z,14.19
2017-06-25T08:49:56.393Z,13.79
2017-06-25T08:50:56.150Z,14.48
2017-06-25T08:51:56.204Z,14.86
2017-06-25T08:52:56.270Z,15.35
2017-06-25T08:53:56.321Z,15.44
2017-06-25T08:54:56.385Z,15.94
2017-06-25T08:55:56.446Z,15.94
2017-06-25T08:56:56.501Z,16.04
2017-06-25T08:57:56.863Z,16.16
2017-06-25T08:58:56.621Z,15.46
2017-06-25T08:59:56.683Z,15.37
2017-06-25T09:00:56.741Z,15.37
2017-06-25T09:01:56.795Z,15.46
2017-06-25T09:02:56.857Z,15.76
2017-06-25T09:03:56.910Z,15.86
2017-06-25T09:04:56.979Z,15.57
2017-06-25T09:05:57.036Z,15.37
2017-06-25T09:06:57.112Z,15.46
2017-06-25T09:07:57.157Z,15.55
2017-06-25T09:08:57.214Z,15.55
2017-06-25T09:09:57.275Z,15.84
2017-06-25T09:10:57.325Z,15.84
2017-06-25T09:11:57.389Z,16.22
2017-06-25T09:12:57.447Z,16.71
2017-06-25T09:13:57.500Z,16.91
2017-06-25T09:14:57.564Z,17
2017-06-25T09:15:57.617Z,16.9
2017-06-25T09:16:57.682Z,17.5
2017-06-25T09:17:57.739Z,17.7
2017-06-25T09:18:57.792Z,17.5
2017-06-25T09:19:57.852Z,16.91
2017-06-25T09:20:57.917Z,16.91
2017-06-25T09:21:57.970Z,16.71
2017-06-25T09:22:58.033Z,17
2017-06-25T09:23:58.092Z,16.89
2017-06-25T09:24:58.146Z,17.38
2017-06-25T09:25:58.512Z,17.66
2017-06-25T09:26:58.295Z,18.26
2017-06-25T09:27:58.328Z,17.96
2017-06-25T09:28:58.389Z,18.35
2017-06-25T09:29:58.748Z,18.16
2017-06-25T09:30:58.512Z,17.95
2017-06-25T09:31:58.560Z,18.74
2017-06-25T09:32:58.932Z,19.03
2017-06-25T09:33:58.684Z,19.21
2017-06-25T09:34:58.738Z,19.42
2017-06-25T09:35:59.106Z,20
2017-06-25T09:36:58.848Z,19.69
2017-06-25T09:37:59.225Z,20.48
2017-06-25T09:38:58.971Z,20.57
2017-06-25T09:39:59.031Z,20.29
2017-06-25T09:40:59.398Z,20.29
2017-06-25T09:41:59.145Z,20.59
2017-06-25T09:42:59.200Z,20.19
2017-06-25T09:43:59.261Z,20.29
2017-06-25T09:44:59.320Z,20.57
2017-06-25T09:45:59.370Z,20.76
2017-06-25T09:46:59.742Z,21.34
2017-06-25T09:47:59.492Z,21.23
2017-06-25T09:48:59.541Z,21.52
2017-06-25T09:49:59.600Z,22
2017-06-25T09:50:59.661Z,22.2
2017-06-25T09:51:59.709Z,22.49
2017-06-25T09:52:59.780Z,22.5
2017-06-25T09:53:59.831Z,22.22
2017-06-25T09:54:59.884Z,22.22
2017-06-25T09:55:59.947Z,21.92
2017-06-25T09:57:00.304Z,21.92
2017-06-25T09:58:00.370Z,21.83
2017-06-25T09:59:00.117Z,22.71
2017-06-25T10:00:00.172Z,21.83
2017-06-25T10:01:00.542Z,22.31
2017-06-25T10:02:00.602Z,22.01
2017-06-25T10:03:00.347Z,22.59
2017-06-25T10:04:00.407Z,22.88
2017-06-25T10:05:00.458Z,22.99
2017-06-25T10:06:00.531Z,23.49
2017-06-25T10:07:00.604Z,22.8
2017-06-25T10:08:00.633Z,22.99
2017-06-25T10:09:00.707Z,22.89
2017-06-25T10:10:00.750Z,22.99
2017-06-25T10:11:00.816Z,22.41
2017-06-25T10:12:00.871Z,22.8
2017-06-25T10:13:00.923Z,22.89
2017-06-25T10:14:00.984Z,22.5
2017-06-25T10:15:01.359Z,22.49
2017-06-25T10:16:01.102Z,22.77
2017-06-25T10:17:01.160Z,23.25
2017-06-25T10:18:01.221Z,23.06
2017-06-25T10:19:01.271Z,23.05
2017-06-25T10:20:01.335Z,23.63
2017-06-25T10:21:01.389Z,23.92
2017-06-25T10:22:01.452Z,23.92
2017-06-25T10:23:01.818Z,24.41
2017-06-25T10:24:01.559Z,24.51
2017-06-25T10:25:01.623Z,24.6
2017-06-25T10:26:01.675Z,24.81
2017-06-25T10:27:01.738Z,24.71
2017-06-25T10:28:02.097Z,24.71
2017-06-25T10:29:01.854Z,24.71
2017-06-25T10:30:01.929Z,24.6
2017-06-25T10:31:01.969Z,24.6
2017-06-25T10:32:02.027Z,24.6
2017-06-25T10:33:02.084Z,24.69
2017-06-25T10:34:02.445Z,25.09
2017-06-25T10:35:02.199Z,25.07
2017-06-25T10:36:02.249Z,25.56
2017-06-25T10:37:02.312Z,25.55
2017-06-25T10:38:02.364Z,25.74
2017-06-25T10:39:02.435Z,25.76
2017-06-25T10:40:02.798Z,25.85
2017-06-25T10:41:02.849Z,25.76
2017-06-25T10:42:02.900Z,25.27
2017-06-25T10:43:02.653Z,25.95
2017-06-25T10:44:02.706Z,25.85
2017-06-25T10:45:02.762Z,25.27
2017-06-25T10:46:02.825Z,25.55
2017-06-25T10:47:02.884Z,25.65
2017-06-25T10:48:02.931Z,25.84
2017-06-25T10:49:02.998Z,25.93
2017-06-25T10:50:03.050Z,26.12
2017-06-25T10:51:03.104Z,26.12
2017-06-25T10:52:03.160Z,26.22
2017-06-25T10:53:03.225Z,26.32
2017-06-25T10:54:03.277Z,26.03
2017-06-25T10:55:03.650Z,26.51
2017-06-25T10:56:03.390Z,26.61
2017-06-25T10:57:03.447Z,26.31
2017-06-25T10:58:03.823Z,26.7
2017-06-25T10:59:03.560Z,26.4
2017-06-25T11:00:03.617Z,26.5
2017-06-25T11:01:03.675Z,26.5
2017-06-25T11:02:03.737Z,26.5
2017-06-25T11:03:04.102Z,26.5
2017-06-25T11:04:03.848Z,26.4
2017-06-25T11:05:03.907Z,26.39
2017-06-25T11:06:03.990Z,26.77
2017-06-25T11:07:04.005Z,26.48
2017-06-25T11:08:04.375Z,27.45
2017-06-25T11:09:04.112Z,27.75
2017-06-25T11:10:04.175Z,27.73
2017-06-25T11:11:04.218Z,27.54
2017-06-25T11:12:04.278Z,27.64
2017-06-25T11:13:04.629Z,28.22
2017-06-25T11:14:04.379Z,28.32
2017-06-25T11:15:04.424Z,28.11
2017-06-25T11:16:04.480Z,28.5
2017-06-25T11:17:04.533Z,28.4
2017-06-25T11:18:04.578Z,28.4
2017-06-25T11:19:04.634Z,28.59
2017-06-25T11:20:04.685Z,28.69
2017-06-25T11:21:04.730Z,28.59
2017-06-25T11:22:04.788Z,28.99
2017-06-25T11:23:04.837Z,28.99
2017-06-25T11:24:04.888Z,28.99
2017-06-25T11:25:05.240Z,29.28
2017-06-25T11:26:04.986Z,29.57
2017-06-25T11:27:05.031Z,29.39
2017-06-25T11:28:05.085Z,29.79
2017-06-25T11:29:05.131Z,29.39
2017-06-25T11:30:05.195Z,30.08
2017-06-25T11:31:05.235Z,29.3
2017-06-25T11:32:05.284Z,30.08
2017-06-25T11:33:05.329Z,29.88
2017-06-25T11:34:05.382Z,29.59
2017-06-25T11:35:05.431Z,29.8
2017-06-25T11:36:05.792Z,29.5
2017-06-25T11:37:05.531Z,29.31
2017-06-25T11:38:05.582Z,29.6
2017-06-25T11:39:05.621Z,29.41
2017-06-25T11:40:05.680Z,29.5
2017-06-25T11:41:05.722Z,29.98
2017-06-25T11:42:05.778Z,29.59
2017-06-25T11:43:05.819Z,29.88
2017-06-25T11:44:05.877Z,30.57
2017-06-25T11:45:05.920Z,30.55
2017-06-25T11:46:05.969Z,31.04
2017-06-25T11:47:06.022Z,30.74
2017-06-25T11:48:06.062Z,31.13
2017-06-25T11:49:06.112Z,31.43
2017-06-25T11:50:06.167Z,31.43
2017-06-25T11:51:06.216Z,31.43
2017-06-25T11:52:06.258Z,31.8
2017-06-25T11:53:06.317Z,32.31
2017-06-25T11:54:06.355Z,32.21
2017-06-25T11:55:06.723Z,32.31
2017-06-25T11:56:06.459Z,32.31
2017-06-25T11:57:06.507Z,32.5
2017-06-25T11:58:06.549Z,32.78
2017-06-25T11:59:06.910Z,32.68
2017-06-25T12:00:06.645Z,32.79
2017-06-25T12:01:07.006Z,32.58
2017-06-25T12:02:06.747Z,32.68
2017-06-25T12:03:06.786Z,32.58
2017-06-25T12:04:06.837Z,32.78
2017-06-25T12:05:06.883Z,32.97
2017-06-25T12:06:07.245Z,33.44
2017-06-25T12:07:06.985Z,33.25
2017-06-25T12:08:07.334Z,33.44
2017-06-25T12:09:07.388Z,33.54
2017-06-25T12:10:07.122Z,33.25
2017-06-25T12:11:07.173Z,33.64
2017-06-25T12:12:07.533Z,33.93
2017-06-25T12:13:07.265Z,33.72
2017-06-25T12:14:07.617Z,34.01
2017-06-25T12:15:07.365Z,34.01
2017-06-25T12:16:07.410Z,34.99
2017-06-25T12:17:07.455Z,34.58
2017-06-25T12:18:07.499Z,34.58
2017-06-25T12:19:07.557Z,34.88
2017-06-25T12:20:07.595Z,34.88
2017-06-25T12:21:07.648Z,34.88
2017-06-25T12:22:07.696Z,34.97
2017-06-25T12:23:08.045Z,35.34
2017-06-25T12:24:07.790Z,35.16
2017-06-25T12:25:07.828Z,35.55
2017-06-25T12:26:07.875Z,35.63
2017-06-25T12:27:07.929Z,35.73
2017-06-25T12:28:08.276Z,36.33
2017-06-25T12:29:08.024Z,36.33
2017-06-25T12:30:08.068Z,36.24
2017-06-25T12:31:08.118Z,36.24
2017-06-25T12:32:08.168Z,36.24
2017-06-25T12:33:08.521Z,36.53
2017-06-25T12:34:08.261Z,36.53
2017-06-25T12:35:08.308Z,35.65
2017-06-25T12:36:08.351Z,36.14
2017-06-25T12:37:08.714Z,36.24
2017-06-25T12:38:08.449Z,36.24
2017-06-25T12:39:08.490Z,36.24
2017-06-25T12:40:08.544Z,36.35
2017-06-25T12:41:08.892Z,36.14
2017-06-25T12:42:08.639Z,36.25
2017-06-25T12:43:08.995Z,36.25
2017-06-25T12:44:08.728Z,36.35
2017-06-25T12:45:08.782Z,36.16
2017-06-25T12:46:08.827Z,35.47
2017-06-25T12:47:08.878Z,35.77
2017-06-25T12:48:08.925Z,35.96
2017-06-25T12:49:08.971Z,36.35
2017-06-25T12:50:09.012Z,35.77
2017-06-25T12:51:09.069Z,36.25
2017-06-25T12:52:09.425Z,36.25
2017-06-25T12:53:09.163Z,36.65
2017-06-25T12:54:09.518Z,36.47
2017-06-25T12:55:09.253Z,35.88
2017-06-25T12:56:09.306Z,35.69
2017-06-25T12:57:09.357Z,35.57